State Line, Idaho
Current Conditions -  °F | °C
As of 10:55 PM on Wednesday 26 Nov 2014 (Local Time) from KCOE Reporting Station
Overcast Overcast  
Wind Chill: 40°   Ceiling: 7000
Heat Index: 45°   Visibility: 10mi
Dew Point: 41°   Wind: 9mph
Humidity: 87%   Direction: 170°S
Pressure: 29.96"   Gusts: NA
Location:  47.7405°N, 116.957°W
Report Text: KCOE 270655Z AUTO 17008KT 10SM SCT041 BKN070 OVC090 07/05 A2996 RMK AO1
Loading
Personal Weather Stations






























Interactive Weather Map New forecast layout! Learn more

10-Day Weather Forecast

Advertisements
Track Severe Weather on mobile